Time;durP1;ratioP1;P1;durP2;ratioP2;P2;SDS_P1;SDS_P2;PMS_P1;PMS_P2;Temp;Humidity;BMP_temperature;BMP_pressure;BME280_temperature;BME280_humidity;BME280_pressure;Samples;Min_cycle;Max_cycle;Signal;HPM_P1;HPM_P2
2022/10/16 00:02:51;;;;;;;30.05;19.60;;;;;;;12.05;97.68;99220.87;4061717;86;21986;-83
2022/10/16 00:08:53;;;;;;;28.38;18.07;;;;;;;12.08;97.90;99216.78;4060863;86;21545;-84
2022/10/16 00:14:54;;;;;;;30.97;18.65;;;;;;;12.12;98.31;99229.17;4075122;86;20976;-84
2022/10/16 00:21:02;;;;;;;24.85;18.73;;;;;;;12.13;98.31;99237.59;4075659;86;22145;-84
2022/10/16 00:27:03;;;;;;;29.90;20.57;;;;;;;12.16;98.45;99238.21;4065032;86;21028;-84
2022/10/16 00:33:05;;;;;;;29.67;19.62;;;;;;;12.20;98.51;99248.05;4077218;85;21493;-83
2022/10/16 00:39:06;;;;;;;24.50;19.02;;;;;;;12.23;98.71;99245.15;4168301;84;21105;-83
2022/10/16 00:45:09;;;;;;;28.90;20.50;;;;;;;12.25;98.93;99257.31;4157064;84;21038;-84
2022/10/16 00:51:11;;;;;;;31.25;21.17;;;;;;;12.25;98.99;99265.55;4159451;84;21094;-84
2022/10/16 00:57:12;;;;;;;29.60;21.85;;;;;;;12.25;99.13;99268.29;4161784;84;21073;-84
2022/10/16 01:03:30;;;;;;;37.23;24.27;;;;;;;12.23;99.47;99270.62;4156608;84;21089;-84
2022/10/16 01:09:49;;;;;;;36.13;23.83;;;;;;;12.21;99.41;99269.43;4162005;84;20982;-84
2022/10/16 01:15:58;;;;;;;37.83;24.87;;;;;;;12.23;99.81;99273.36;4150309;83;21026;-84
2022/10/16 01:22:00;;;;;;;33.33;21.75;;;;;;;12.24;100.00;99265.92;4148200;83;20989;-83
2022/10/16 01:28:06;;;;;;;36.45;23.35;;;;;;;12.25;100.00;99270.23;4161839;84;21138;-84
2022/10/16 01:34:31;;;;;;;36.03;26.35;;;;;;;12.22;100.00;99261.39;4160130;84;21067;-84
2022/10/16 01:40:38;;;;;;;32.78;23.12;;;;;;;12.18;100.00;99263.33;4149339;84;21779;-84
2022/10/16 01:46:43;;;;;;;39.70;25.62;;;;;;;12.16;100.00;99275.27;4068010;86;21540;-84
2022/10/16 01:52:48;;;;;;;43.75;26.05;;;;;;;12.17;100.00;99287.80;4074291;85;21078;-84
2022/10/16 01:59:12;;;;;;;45.60;28.05;;;;;;;12.13;100.00;99284.25;4082491;85;21075;-83
2022/10/16 02:05:40;;;;;;;46.55;29.55;;;;;;;12.10;100.00;99286.38;4057212;85;21096;-85
2022/10/16 02:11:44;;;;;;;47.25;29.63;;;;;;;12.01;100.00;99281.19;4071905;85;21598;-84
2022/10/16 02:17:45;;;;;;;38.70;26.30;;;;;;;11.97;100.00;99291.92;4090477;85;21106;-83
2022/10/16 02:24:02;;;;;;;38.02;25.30;;;;;;;11.90;100.00;99289.12;4072254;85;21944;-84
2022/10/16 02:30:23;;;;;;;35.40;23.18;;;;;;;11.85;100.00;99283.40;4064405;85;21597;-84
2022/10/16 02:36:27;;;;;;;32.78;22.50;;;;;;;11.78;100.00;99275.08;4059239;85;21019;-83
2022/10/16 02:42:35;;;;;;;31.65;21.40;;;;;;;11.77;100.00;99280.37;4059242;86;21091;-84
2022/10/16 02:48:39;;;;;;;29.40;21.85;;;;;;;11.76;100.00;99281.52;4065916;86;21018;-83
2022/10/16 02:54:40;;;;;;;29.12;19.65;;;;;;;11.74;100.00;99281.70;4026558;87;21064;-84
2022/10/16 03:00:42;;;;;;;29.18;19.48;;;;;;;11.72;100.00;99286.76;3974096;88;21613;-83
2022/10/16 03:06:43;;;;;;;30.88;20.97;;;;;;;11.68;100.00;99300.42;4193132;84;22013;-84
2022/10/16 03:12:45;;;;;;;30.37;20.40;;;;;;;11.68;100.00;99290.83;4198697;84;21655;-83
2022/10/16 03:18:49;;;;;;;31.68;22.32;;;;;;;11.63;100.00;99282.95;4200546;84;21033;-84
2022/10/16 03:24:51;;;;;;;30.75;21.07;;;;;;;11.59;100.00;99280.70;4192974;84;21961;-84
2022/10/16 03:30:52;;;;;;;30.52;20.97;;;;;;;11.56;100.00;99284.20;4203715;84;21069;-84
2022/10/16 03:36:54;;;;;;;30.15;19.12;;;;;;;11.47;100.00;99297.41;4173803;84;21148;-83
2022/10/16 03:42:57;;;;;;;26.27;19.23;;;;;;;11.36;100.00;99306.09;4183208;84;21550;-85
2022/10/16 03:48:58;;;;;;;25.85;17.92;;;;;;;11.25;100.00;99324.34;4182354;84;21096;-84
2022/10/16 03:54:59;;;;;;;29.77;21.50;;;;;;;11.05;100.00;99337.95;4178587;84;21043;-83
2022/10/16 04:01:02;;;;;;;37.20;20.97;;;;;;;10.88;100.00;99341.23;4175794;84;21548;-83
2022/10/16 04:07:03;;;;;;;32.98;19.82;;;;;;;10.78;100.00;99341.27;4192702;84;22031;-83
2022/10/16 04:13:04;;;;;;;24.27;18.25;;;;;;;10.66;100.00;99345.59;4177935;84;21060;-84
2022/10/16 04:19:07;;;;;;;24.05;16.55;;;;;;;10.66;100.00;99357.91;4177483;84;21025;-84
2022/10/16 04:25:08;;;;;;;22.27;15.85;;;;;;;10.64;100.00;99355.30;4188971;84;22124;-85
2022/10/16 04:31:09;;;;;;;24.67;17.57;;;;;;;10.59;100.00;99359.71;4179046;84;20977;-84
2022/10/16 04:37:12;;;;;;;28.65;17.92;;;;;;;10.52;100.00;99355.50;4141189;84;21035;-83
2022/10/16 04:43:13;;;;;;;27.95;17.42;;;;;;;10.46;100.00;99347.39;4148672;84;21737;-83
2022/10/16 04:49:14;;;;;;;21.25;14.63;;;;;;;10.41;100.00;99351.22;4127717;84;21987;-83
2022/10/16 04:55:15;;;;;;;21.97;15.63;;;;;;;10.36;100.00;99363.03;4115858;84;21020;-83
2022/10/16 05:01:17;;;;;;;23.40;15.55;;;;;;;10.33;100.00;99356.92;4114143;86;21085;-83
2022/10/16 05:07:18;;;;;;;18.95;14.25;;;;;;;10.23;100.00;99360.25;4089657;86;21009;-84
2022/10/16 05:13:19;;;;;;;17.77;13.30;;;;;;;10.12;100.00;99359.27;4079685;85;21060;-83
2022/10/16 05:19:20;;;;;;;18.92;14.40;;;;;;;10.01;100.00;99362.34;4070583;85;21035;-83
2022/10/16 05:25:22;;;;;;;15.95;12.25;;;;;;;9.93;100.00;99360.66;4142747;84;21593;-84
2022/10/16 05:31:23;;;;;;;20.55;13.10;;;;;;;9.93;100.00;99366.89;4145516;84;21059;-84
2022/10/16 05:37:24;;;;;;;20.65;15.28;;;;;;;10.02;100.00;99378.42;4094092;84;21469;-83
2022/10/16 05:43:28;;;;;;;27.40;17.87;;;;;;;10.04;100.00;99387.03;4085671;85;21015;-83
2022/10/16 05:49:30;;;;;;;30.50;19.92;;;;;;;10.02;100.00;99380.36;4096506;85;21040;-83
2022/10/16 05:55:31;;;;;;;20.88;13.62;;;;;;;10.08;100.00;99383.84;4089612;85;21025;-84
2022/10/16 06:01:35;;;;;;;22.35;16.50;;;;;;;10.16;100.00;99384.76;4082891;85;21707;-83
2022/10/16 06:07:36;;;;;;;24.85;17.87;;;;;;;10.24;100.00;99391.95;4081742;85;21043;-83
2022/10/16 06:13:38;;;;;;;25.25;17.40;;;;;;;10.27;100.00;99383.02;4083617;85;21695;-84
2022/10/16 06:19:40;;;;;;;33.38;21.00;;;;;;;10.31;100.00;99403.01;4094470;84;21547;-83
2022/10/16 06:25:41;;;;;;;38.70;23.05;;;;;;;10.36;100.00;99412.30;4079566;85;21434;-84
2022/10/16 06:31:43;;;;;;;29.92;21.45;;;;;;;10.52;100.00;99427.44;4088159;85;21034;-84
2022/10/16 06:37:44;;;;;;;37.35;22.73;;;;;;;10.66;100.00;99436.50;4163958;84;21021;-84
2022/10/16 06:43:47;;;;;;;31.55;20.08;;;;;;;10.84;100.00;99443.87;4187599;84;21119;-84
2022/10/16 06:49:48;;;;;;;30.48;20.72;;;;;;;10.99;100.00;99444.30;4211842;84;20973;-84
2022/10/16 06:55:49;;;;;;;30.80;22.07;;;;;;;11.15;100.00;99455.72;4198578;84;21033;-83
2022/10/16 07:01:53;;;;;;;29.65;20.12;;;;;;;11.22;100.00;99457.19;4186878;84;21059;-83
2022/10/16 07:07:55;;;;;;;36.77;22.42;;;;;;;11.34;100.00;99468.73;4197398;84;21049;-83
2022/10/16 07:13:56;;;;;;;29.70;20.10;;;;;;;11.52;100.00;99471.75;4186463;84;21463;-83
2022/10/16 07:19:57;;;;;;;23.77;17.23;;;;;;;11.63;100.00;99466.68;4182395;84;21047;-84
2022/10/16 07:25:59;;;;;;;26.30;16.75;;;;;;;11.75;100.00;99465.08;4180854;84;21076;-83
2022/10/16 07:32:02;;;;;;;23.47;16.45;;;;;;;11.84;100.00;99474.42;4193675;84;21087;-84
2022/10/16 07:38:03;;;;;;;17.98;14.28;;;;;;;12.06;100.00;99471.56;4138199;84;58740;-83
2022/10/16 07:44:05;;;;;;;20.15;14.35;;;;;;;12.38;100.00;99474.69;4088363;85;21040;-83
2022/10/16 07:50:08;;;;;;;24.57;16.45;;;;;;;12.64;100.00;99479.50;4142058;85;21009;-84
2022/10/16 07:56:10;;;;;;;20.10;15.00;;;;;;;12.86;100.00;99475.00;4140233;85;20985;-84
2022/10/16 08:02:12;;;;;;;19.85;14.93;;;;;;;13.13;100.00;99479.20;4173908;85;21433;-84
2022/10/16 08:08:16;;;;;;;20.45;14.23;;;;;;;13.55;100.00;99492.48;4134054;84;21990;-84
2022/10/16 08:14:18;;;;;;;18.12;13.05;;;;;;;14.28;100.00;99494.92;4168083;85;20953;-84
2022/10/16 08:20:19;;;;;;;17.15;13.40;;;;;;;14.91;100.00;99502.58;4198542;84;21584;-83
2022/10/16 08:26:21;;;;;;;14.55;10.72;;;;;;;15.33;100.00;99502.62;4129611;84;21886;-84
2022/10/16 08:32:23;;;;;;;14.00;10.78;;;;;;;15.71;100.00;99507.34;4203489;85;21048;-84
2022/10/16 08:38:31;;;;;;;15.15;10.28;;;;;;;16.07;100.00;99506.69;4139022;84;21018;-84
2022/10/16 08:45:00;;;;;;;11.68;9.38;;;;;;;16.68;100.00;99510.19;4156956;83;21080;-84
2022/10/16 08:51:04;;;;;;;13.03;9.35;;;;;;;17.57;100.00;99510.58;4146174;84;21710;-85
2022/10/16 08:57:22;;;;;;;12.40;8.40;;;;;;;18.60;99.62;99518.78;4155492;84;21039;-84
2022/10/16 09:03:57;;;;;;;10.38;7.55;;;;;;;18.62;98.19;99519.78;4144687;84;21043;-85
2022/10/16 09:17:38;;;;;;;13.00;7.97;;;;;;;19.37;94.96;99528.00;4166829;84;20956;-85
2022/10/16 09:23:40;;;;;;;15.25;7.95;;;;;;;19.20;92.54;99527.65;4142777;84;21009;-85
2022/10/16 09:29:42;;;;;;;9.03;7.20;;;;;;;19.25;92.61;99528.57;4147567;84;21049;-85
2022/10/16 09:35:55;;;;;;;12.88;8.88;;;;;;;19.30;91.58;99530.91;4071237;85;21050;-85
2022/10/16 09:41:57;;;;;;;9.15;7.53;;;;;;;19.45;91.37;99534.25;4084272;87;21068;-85
2022/10/16 09:48:03;;;;;;;10.63;7.75;;;;;;;19.93;90.27;99532.62;4170765;84;21008;-85
2022/10/16 09:54:19;;;;;;;10.03;7.53;;;;;;;20.51;90.01;99539.48;4161375;84;21012;-86
2022/10/16 10:00:22;;;;;;;9.95;7.47;;;;;;;20.98;88.72;99530.35;4180871;84;20991;-85
2022/10/16 10:13:24;;;;;;;6.95;6.08;;;;;;;20.95;86.50;99531.98;4147332;85;20988;-85
2022/10/16 10:19:27;;;;;;;9.55;6.20;;;;;;;21.38;87.11;99534.58;4072105;86;21061;-85
2022/10/16 10:25:47;;;;;;;6.97;5.92;;;;;;;21.70;84.46;99538.77;4082954;86;21641;-86
2022/10/16 10:32:13;;;;;;;7.37;5.67;;;;;;;21.98;83.82;99539.46;4077966;86;21628;-85
2022/10/16 10:38:23;;;;;;;7.55;5.17;;;;;;;21.95;81.39;99539.55;4112649;84;20980;-85
2022/10/16 10:45:00;;;;;;;6.15;5.33;;;;;;;22.07;79.06;99534.03;4129198;84;21500;-85
2022/10/16 10:51:42;;;;;;;6.67;5.20;;;;;;;22.02;77.68;99519.23;4120771;84;21028;-85
2022/10/16 10:58:01;;;;;;;6.95;4.83;;;;;;;22.01;76.09;99528.03;4124513;84;21037;-85
2022/10/16 11:04:43;;;;;;;6.00;4.70;;;;;;;21.90;75.05;99528.92;4173774;84;20987;-84
2022/10/16 11:11:14;;;;;;;5.87;5.12;;;;;;;21.67;73.89;99533.44;4119562;83;21006;-85
2022/10/16 11:17:25;;;;;;;4.83;4.20;;;;;;;21.47;73.51;99523.63;4146590;84;21000;-84
2022/10/16 11:23:54;;;;;;;6.53;4.78;;;;;;;21.35;73.30;99525.70;4119867;84;21021;-85
2022/10/16 11:30:01;;;;;;;6.30;4.62;;;;;;;21.24;72.27;99530.14;4116894;84;21025;-85
2022/10/16 11:36:15;;;;;;;5.95;4.80;;;;;;;21.21;72.12;99524.05;4116645;84;21005;-85
2022/10/16 11:42:25;;;;;;;6.65;4.97;;;;;;;21.21;71.90;99527.42;4056138;84;21030;-85
2022/10/16 11:48:50;;;;;;;7.45;4.85;;;;;;;21.06;72.12;99534.55;4101381;86;21044;-85
2022/10/16 11:54:59;;;;;;;4.97;4.42;;;;;;;20.97;71.74;99529.56;4042230;86;21603;-85
2022/10/16 12:01:31;;;;;;;6.62;4.80;;;;;;;20.86;72.01;99529.61;4078553;86;21003;-85
2022/10/16 12:07:41;;;;;;;8.90;5.20;;;;;;;20.67;71.79;99531.17;4034372;86;20995;-84
2022/10/16 12:13:47;;;;;;;8.13;4.65;;;;;;;20.51;71.52;99538.69;4061473;86;21090;-85
2022/10/16 12:20:16;;;;;;;6.45;5.55;;;;;;;20.35;71.88;99542.77;4081204;86;21518;-85
2022/10/16 12:26:33;;;;;;;7.92;5.30;;;;;;;20.26;71.82;99542.56;4074041;85;21007;-84
2022/10/16 12:32:58;;;;;;;;;;;;;;;20.22;72.23;99541.23;4068796;86;21904;-84
2022/10/16 12:39:01;;;;;;;7.85;4.83;;;;;;;20.24;72.34;99542.98;4077992;84;20126;-84
2022/10/16 12:45:24;;;;;;;6.70;4.12;;;;;;;20.34;72.52;99541.22;4126127;84;21017;-85
2022/10/16 12:51:33;;;;;;;5.67;3.92;;;;;;;20.40;72.36;99543.67;4131305;84;21934;-84
2022/10/16 12:58:05;;;;;;;6.95;4.87;;;;;;;20.35;71.54;99551.11;4134646;84;20988;-85
2022/10/16 13:04:29;;;;;;;8.83;4.33;;;;;;;20.26;71.62;99557.85;4135809;84;21030;-84
2022/10/16 13:11:07;;;;;;;7.20;5.33;;;;;;;20.15;71.85;99554.66;4161102;84;20956;-86
2022/10/16 13:17:55;;;;;;;7.85;4.85;;;;;;;20.10;72.12;99558.52;4112484;84;21596;-85
2022/10/16 13:24:29;;;;;;;6.42;4.47;;;;;;;20.13;72.59;99577.94;4140939;83;20978;-85
2022/10/16 13:30:38;;;;;;;7.30;4.45;;;;;;;20.09;72.59;99575.78;4175983;84;21057;-85
2022/10/16 13:36:52;;;;;;;6.28;4.67;;;;;;;20.03;72.42;99580.86;4123030;84;21093;-85
2022/10/16 13:42:53;;;;;;;6.22;4.83;;;;;;;19.93;72.08;99577.67;4122860;84;21030;-85
2022/10/16 13:49:12;;;;;;;7.75;4.67;;;;;;;19.92;71.85;99586.61;4148448;84;20977;-84
2022/10/16 13:55:17;;;;;;;7.17;4.55;;;;;;;19.90;71.83;99593.22;4127102;83;21057;-85
2022/10/16 14:01:29;;;;;;;8.53;4.60;;;;;;;19.78;72.09;99597.20;4124241;84;21888;-85
2022/10/16 14:08:07;;;;;;;8.13;4.33;;;;;;;19.68;71.97;99612.03;4123183;84;21059;-85
2022/10/16 14:14:12;;;;;;;6.70;4.65;;;;;;;19.55;72.12;99613.81;4063384;85;20976;-85
2022/10/16 14:20:22;;;;;;;5.92;4.35;;;;;;;19.39;72.38;99621.38;4072918;86;21950;-85
2022/10/16 14:26:27;;;;;;;10.78;5.72;;;;;;;19.32;72.22;99611.78;4071271;85;20979;-85
2022/10/16 14:32:28;;;;;;;4.97;4.25;;;;;;;19.29;72.44;99608.45;4077072;86;21020;-85
2022/10/16 14:38:32;;;;;;;6.42;4.45;;;;;;;19.27;72.47;99605.87;4068823;85;21026;-85
2022/10/16 14:44:44;;;;;;;6.40;4.65;;;;;;;19.25;72.70;99597.96;4216321;84;20995;-85
2022/10/16 14:50:46;;;;;;;6.72;5.05;;;;;;;19.24;72.74;99598.38;4159397;84;20990;-85
2022/10/16 14:56:56;;;;;;;6.67;5.30;;;;;;;19.23;72.67;99597.59;4112965;82;74722;-85
2022/10/16 15:02:57;;;;;;;8.03;4.95;;;;;;;19.22;72.43;99589.08;4122639;85;21042;-84
2022/10/16 15:08:59;;;;;;;6.45;4.80;;;;;;;19.08;72.77;99599.59;4108183;85;21055;-84
2022/10/16 15:15:21;;;;;;;7.42;5.10;;;;;;;18.89;72.93;99607.96;4109684;85;21937;-84
2022/10/16 15:21:32;;;;;;;5.92;4.65;;;;;;;18.71;73.15;99625.43;4106873;85;21184;-84
2022/10/16 15:27:39;;;;;;;7.90;5.17;;;;;;;18.57;73.90;99629.13;4044023;86;20988;-84
2022/10/16 15:33:37;;;;;;;9.68;5.25;;;;;;;18.42;74.02;99638.02;3980970;88;21052;-84
2022/10/16 15:39:39;;;;;;;9.35;5.53;;;;;;;18.31;74.62;99635.33;4008813;87;21565;-85
2022/10/16 15:45:41;;;;;;;8.53;5.70;;;;;;;18.10;74.84;99636.13;3981937;87;20976;-84
2022/10/16 15:51:42;;;;;;;8.05;6.15;;;;;;;17.94;75.26;99644.18;4012554;87;21939;-84
2022/10/16 15:57:44;;;;;;;13.08;6.90;;;;;;;17.75;75.71;99646.91;4028566;87;21049;-84
2022/10/16 16:03:45;;;;;;;9.30;6.60;;;;;;;17.53;76.21;99645.47;3984856;89;21888;-84
2022/10/16 16:09:47;;;;;;;12.05;7.90;;;;;;;17.33;77.04;99654.07;4010435;87;20993;-84
2022/10/16 16:15:48;;;;;;;11.45;7.08;;;;;;;17.11;77.40;99651.22;4009289;87;21001;-84
2022/10/16 16:21:52;;;;;;;12.68;9.28;;;;;;;16.89;77.92;99648.35;3896046;87;10000095;-84
2022/10/16 16:27:54;;;;;;;12.15;7.70;;;;;;;16.69;78.34;99650.80;3989751;87;20999;-85
2022/10/16 16:33:57;;;;;;;17.52;9.98;;;;;;;16.50;78.85;99664.27;3991542;87;21022;-84
2022/10/16 16:39:58;;;;;;;20.77;11.28;;;;;;;16.26;79.37;99681.05;4007260;86;20981;-84
2022/10/16 16:46:01;;;;;;;13.93;10.18;;;;;;;16.02;79.96;99689.34;4129580;85;21012;-84
2022/10/16 16:52:03;;;;;;;13.80;10.10;;;;;;;15.75;80.40;99690.89;4128617;85;21058;-84
2022/10/16 16:58:05;;;;;;;18.65;11.57;;;;;;;15.52;81.35;99697.55;4161018;85;21003;-84
2022/10/16 17:04:08;;;;;;;17.50;8.80;;;;;;;15.38;81.77;99700.85;4128671;85;20956;-83
2022/10/16 17:10:09;;;;;;;16.80;10.35;;;;;;;15.21;82.46;99713.39;4124539;85;21933;-84
2022/10/16 17:16:10;;;;;;;15.35;11.03;;;;;;;15.05;82.95;99711.55;4109475;85;20956;-84
2022/10/16 17:22:12;;;;;;;17.35;9.85;;;;;;;14.91;83.50;99710.09;4021866;85;10000418;-85
2022/10/16 17:28:14;;;;;;;12.98;9.25;;;;;;;14.73;84.18;99723.00;4130065;85;21086;-84
2022/10/16 17:34:16;;;;;;;16.02;9.15;;;;;;;14.56;84.92;99733.91;4129401;85;21868;-83
2022/10/16 17:40:17;;;;;;;16.27;11.25;;;;;;;14.44;85.76;99748.00;4121319;85;21113;-84
2022/10/16 17:46:21;;;;;;;14.05;9.03;;;;;;;14.36;86.10;99750.48;4115538;85;20964;-84
2022/10/16 17:52:23;;;;;;;23.35;12.20;;;;;;;14.18;86.31;99760.75;4146669;85;20964;-84
2022/10/16 17:58:24;;;;;;;22.27;14.87;;;;;;;14.01;86.93;99762.75;4122213;85;21064;-84
2022/10/16 18:04:25;;;;;;;18.15;12.18;;;;;;;13.98;87.45;99752.47;4161774;85;21436;-84
2022/10/16 18:10:27;;;;;;;18.50;10.55;;;;;;;13.77;87.23;99767.99;4130805;85;20994;-84
2022/10/16 18:16:30;;;;;;;16.95;9.95;;;;;;;13.60;88.03;99780.97;4124903;85;21854;-83
2022/10/16 18:22:35;;;;;;;16.32;11.38;;;;;;;13.57;89.14;99780.35;4014259;85;9999909;-84
2022/10/16 18:28:37;;;;;;;24.90;18.07;;;;;;;13.59;89.15;99794.53;4127269;85;20963;-84
2022/10/16 18:34:38;;;;;;;27.13;17.32;;;;;;;13.47;88.85;99801.63;4107915;85;21386;-84
2022/10/16 18:40:39;;;;;;;29.90;19.05;;;;;;;13.27;89.18;99816.13;4116936;85;21449;-84
2022/10/16 18:46:42;;;;;;;29.07;19.12;;;;;;;13.05;89.49;99823.88;4116233;84;21016;-84
2022/10/16 18:52:48;;;;;;;26.42;17.98;;;;;;;12.91;90.09;99831.08;4111620;85;20988;-83
2022/10/16 18:58:52;;;;;;;49.10;26.62;;;;;;;12.81;90.45;99839.38;4113485;85;21074;-85
2022/10/16 19:04:54;;;;;;;38.53;24.52;;;;;;;12.58;91.13;99851.78;4113376;85;21035;-83
2022/10/16 19:10:55;;;;;;;32.05;20.70;;;;;;;12.54;91.55;99860.52;4115225;85;21020;-84
2022/10/16 19:16:56;;;;;;;28.23;19.80;;;;;;;12.54;91.96;99866.02;4114759;85;21717;-83
2022/10/16 19:22:58;;;;;;;26.20;16.52;;;;;;;12.40;91.76;99867.75;3995499;84;9999988;-84
2022/10/16 19:29:02;;;;;;;36.55;21.57;;;;;;;12.03;91.02;99885.86;4114879;85;20966;-85
2022/10/16 19:35:04;;;;;;;46.30;30.45;;;;;;;11.89;92.54;99892.44;4116476;85;21144;-84
2022/10/16 19:41:11;;;;;;;48.15;31.15;;;;;;;11.68;92.43;99884.57;4125363;84;21103;-83
2022/10/16 19:47:13;;;;;;;35.58;21.97;;;;;;;11.62;94.05;99887.95;4141878;83;21079;-84
2022/10/16 19:53:14;;;;;;;43.73;25.68;;;;;;;11.56;93.29;99896.25;4141166;84;21047;-83
2022/10/16 19:59:18;;;;;;;33.45;22.48;;;;;;;11.39;93.98;99900.19;4145754;84;21019;-86
2022/10/16 20:05:19;;;;;;;36.73;23.32;;;;;;;11.41;94.94;99901.20;4146799;84;20950;-83
2022/10/16 20:11:24;;;;;;;49.50;30.20;;;;;;;11.38;94.70;99899.17;4145627;84;21849;-84
2022/10/16 20:17:26;;;;;;;33.05;23.12;;;;;;;11.36;95.64;99900.91;4142846;84;21854;-83
2022/10/16 20:23:27;;;;;;;37.25;23.15;;;;;;;11.29;95.38;99905.44;4140073;84;21012;-83
2022/10/16 20:29:28;;;;;;;39.75;25.75;;;;;;;11.22;95.48;99913.48;4146348;84;21485;-83
2022/10/16 20:35:36;;;;;;;40.67;27.60;;;;;;;11.16;96.11;99916.28;4148984;84;21028;-84
2022/10/16 20:41:37;;;;;;;50.20;31.62;;;;;;;11.13;96.11;99929.33;4160392;84;21052;-83
2022/10/16 20:47:39;;;;;;;40.67;26.70;;;;;;;11.08;96.42;99935.88;4141841;84;20984;-83
2022/10/16 20:53:42;;;;;;;42.15;25.30;;;;;;;11.06;96.68;99941.72;4027542;84;9999808;-84
2022/10/16 20:59:44;;;;;;;29.23;20.02;;;;;;;11.02;96.92;99946.30;4145666;84;21055;-83
2022/10/16 21:05:45;;;;;;;36.28;22.50;;;;;;;10.74;95.85;99949.70;4144547;84;21612;-83
2022/10/16 21:11:47;;;;;;;29.65;20.90;;;;;;;10.67;97.11;99954.21;4143382;84;20976;-83
2022/10/16 21:17:48;;;;;;;40.12;22.80;;;;;;;10.62;97.18;99964.86;4134035;85;21472;-83
2022/10/16 21:23:50;;;;;;;33.88;21.73;;;;;;;10.53;97.43;99965.60;4141217;84;21893;-83
2022/10/16 21:29:53;;;;;;;27.32;19.40;;;;;;;10.53;97.78;99977.12;4146864;84;21939;-84
2022/10/16 21:35:54;;;;;;;30.40;20.27;;;;;;;10.50;98.18;99980.00;4134967;84;21003;-83
2022/10/16 21:41:55;;;;;;;24.95;18.15;;;;;;;10.49;98.44;99987.97;4131007;84;21553;-83
2022/10/16 21:47:56;;;;;;;28.07;17.67;;;;;;;10.46;98.64;99993.37;4104906;85;20980;-83
2022/10/16 21:53:59;;;;;;;23.35;16.65;;;;;;;10.43;99.01;99998.17;4116281;85;21007;-84
2022/10/16 22:00:01;;;;;;;23.15;16.62;;;;;;;10.34;98.30;100001.05;4118517;85;21066;-85
2022/10/16 22:06:05;;;;;;;26.37;16.70;;;;;;;10.21;98.92;100014.55;4114153;85;21038;-83
2022/10/16 22:12:06;;;;;;;25.50;17.32;;;;;;;10.11;99.43;100013.69;4121001;85;20980;-83
2022/10/16 22:18:08;;;;;;;22.00;15.15;;;;;;;10.13;99.70;100021.55;4103622;85;21594;-82
2022/10/16 22:24:09;;;;;;;22.27;13.13;;;;;;;10.08;99.53;100021.23;4115730;85;21068;-83
2022/10/16 22:30:11;;;;;;;24.87;16.20;;;;;;;10.01;99.74;100031.11;4118442;85;20992;-83
2022/10/16 22:36:14;;;;;;;20.75;13.75;;;;;;;9.88;99.65;100026.23;4119790;85;21017;-83
2022/10/16 22:42:15;;;;;;;23.92;14.15;;;;;;;9.96;100.00;100031.38;4114054;85;21052;-83
2022/10/16 22:48:17;;;;;;;21.87;14.33;;;;;;;9.96;100.00;100025.91;4098899;85;21076;-83
2022/10/16 22:54:18;;;;;;;22.42;14.47;;;;;;;9.97;100.00;100033.77;4118622;85;21587;-83
2022/10/16 23:00:19;;;;;;;26.97;14.33;;;;;;;9.85;100.00;100035.73;4128464;85;20988;-83
2022/10/16 23:06:21;;;;;;;22.98;15.28;;;;;;;9.83;100.00;100036.08;4120330;85;21053;-83
2022/10/16 23:12:24;;;;;;;22.32;15.48;;;;;;;9.82;100.00;100037.20;4122142;85;20992;-82
2022/10/16 23:18:25;;;;;;;25.95;15.65;;;;;;;9.74;100.00;100038.11;4120464;85;21016;-83
2022/10/16 23:24:31;;;;;;;21.10;13.83;;;;;;;9.69;100.00;100044.41;4194558;85;21007;-83
2022/10/16 23:30:33;;;;;;;18.77;14.07;;;;;;;9.68;100.00;100042.81;4099813;85;21557;-83
2022/10/16 23:36:34;;;;;;;28.80;14.38;;;;;;;9.69;100.00;100045.20;4118039;85;21009;-83
2022/10/16 23:42:35;;;;;;;27.37;16.25;;;;;;;9.46;100.00;100061.83;4127546;84;20993;-83
2022/10/16 23:48:37;;;;;;;25.32;16.10;;;;;;;9.37;100.00;100063.87;4135199;84;21033;-83
2022/10/16 23:54:38;;;;;;;27.95;17.17;;;;;;;9.31;100.00;100070.16;4133059;84;20980;-82
